sensor_id;sensor_type;location;lat;lon;timestamp;temperature;humidity
17807;DHT22;9027;48.938;9.182;2022-09-02T00:00:26;16.80;99.90
17807;DHT22;9027;48.938;9.182;2022-09-02T00:02:03;16.80;99.90
17807;DHT22;9027;48.938;9.182;2022-09-02T00:03:37;16.80;99.90
17807;DHT22;9027;48.938;9.182;2022-09-02T00:05:08;16.70;99.90
17807;DHT22;9027;48.938;9.182;2022-09-02T00:06:41;16.70;99.90
17807;DHT22;9027;48.938;9.182;2022-09-02T00:08:13;16.70;99.90
17807;DHT22;9027;48.938;9.182;2022-09-02T00:09:45;16.70;99.90
17807;DHT22;9027;48.938;9.182;2022-09-02T00:11:21;16.70;99.90
17807;DHT22;9027;48.938;9.182;2022-09-02T00:12:53;16.70;99.90
17807;DHT22;9027;48.938;9.182;2022-09-02T00:14:27;16.60;99.90
17807;DHT22;9027;48.938;9.182;2022-09-02T00:15:59;16.70;99.90
17807;DHT22;9027;48.938;9.182;2022-09-02T00:17:30;16.60;99.90
17807;DHT22;9027;48.938;9.182;2022-09-02T00:19:21;16.60;99.90
17807;DHT22;9027;48.938;9.182;2022-09-02T00:20:53;16.60;99.90
17807;DHT22;9027;48.938;9.182;2022-09-02T00:22:25;16.60;99.90
17807;DHT22;9027;48.938;9.182;2022-09-02T00:23:57;16.60;99.90
17807;DHT22;9027;48.938;9.182;2022-09-02T00:25:29;16.60;99.90
17807;DHT22;9027;48.938;9.182;2022-09-02T00:27:01;16.50;99.90
17807;DHT22;9027;48.938;9.182;2022-09-02T00:28:35;16.50;99.90
17807;DHT22;9027;48.938;9.182;2022-09-02T00:30:07;16.50;99.90
17807;DHT22;9027;48.938;9.182;2022-09-02T00:31:39;16.40;99.90
17807;DHT22;9027;48.938;9.182;2022-09-02T00:33:12;16.50;99.90
17807;DHT22;9027;48.938;9.182;2022-09-02T00:34:44;16.40;99.90
17807;DHT22;9027;48.938;9.182;2022-09-02T00:36:16;16.40;99.90
17807;DHT22;9027;48.938;9.182;2022-09-02T00:37:47;16.40;99.90
17807;DHT22;9027;48.938;9.182;2022-09-02T00:39:19;16.40;99.90
17807;DHT22;9027;48.938;9.182;2022-09-02T00:40:51;16.40;99.90
17807;DHT22;9027;48.938;9.182;2022-09-02T00:42:25;16.30;99.90
17807;DHT22;9027;48.938;9.182;2022-09-02T00:44:00;16.30;99.90
17807;DHT22;9027;48.938;9.182;2022-09-02T00:45:33;16.30;99.90
17807;DHT22;9027;48.938;9.182;2022-09-02T00:47:04;16.30;99.90
17807;DHT22;9027;48.938;9.182;2022-09-02T00:48:38;16.30;99.90
17807;DHT22;9027;48.938;9.182;2022-09-02T00:50:12;16.30;99.90
17807;DHT22;9027;48.938;9.182;2022-09-02T00:51:46;16.20;99.90
17807;DHT22;9027;48.938;9.182;2022-09-02T00:53:18;16.20;99.90
17807;DHT22;9027;48.938;9.182;2022-09-02T00:54:52;16.10;99.90
17807;DHT22;9027;48.938;9.182;2022-09-02T00:56:27;16.10;99.90
17807;DHT22;9027;48.938;9.182;2022-09-02T00:58:04;16.10;99.90
17807;DHT22;9027;48.938;9.182;2022-09-02T00:59:43;16.10;99.90
17807;DHT22;9027;48.938;9.182;2022-09-02T01:01:17;16.10;99.90
17807;DHT22;9027;48.938;9.182;2022-09-02T01:02:56;16.10;99.90
17807;DHT22;9027;48.938;9.182;2022-09-02T01:04:28;16.00;99.90
17807;DHT22;9027;48.938;9.182;2022-09-02T01:05:59;16.00;99.90
17807;DHT22;9027;48.938;9.182;2022-09-02T01:07:37;16.00;99.90
17807;DHT22;9027;48.938;9.182;2022-09-02T01:09:11;16.00;99.90
17807;DHT22;9027;48.938;9.182;2022-09-02T01:10:46;16.00;99.90
17807;DHT22;9027;48.938;9.182;2022-09-02T01:12:19;16.00;99.90
17807;DHT22;9027;48.938;9.182;2022-09-02T01:13:51;15.90;99.90
17807;DHT22;9027;48.938;9.182;2022-09-02T01:15:24;15.90;99.90
17807;DHT22;9027;48.938;9.182;2022-09-02T01:16:58;15.90;99.90
17807;DHT22;9027;48.938;9.182;2022-09-02T01:18:31;15.90;99.90
17807;DHT22;9027;48.938;9.182;2022-09-02T01:20:10;15.90;99.90
17807;DHT22;9027;48.938;9.182;2022-09-02T01:21:46;15.90;99.90
17807;DHT22;9027;48.938;9.182;2022-09-02T01:23:19;15.90;99.90
17807;DHT22;9027;48.938;9.182;2022-09-02T01:24:51;15.90;99.90
17807;DHT22;9027;48.938;9.182;2022-09-02T01:26:23;15.90;99.90
17807;DHT22;9027;48.938;9.182;2022-09-02T01:27:59;15.90;99.90
17807;DHT22;9027;48.938;9.182;2022-09-02T01:29:31;15.80;99.90
17807;DHT22;9027;48.938;9.182;2022-09-02T01:31:04;15.90;99.90
17807;DHT22;9027;48.938;9.182;2022-09-02T01:32:36;15.80;99.90
17807;DHT22;9027;48.938;9.182;2022-09-02T01:34:07;15.80;99.90
17807;DHT22;9027;48.938;9.182;2022-09-02T01:35:40;15.70;99.90
17807;DHT22;9027;48.938;9.182;2022-09-02T01:37:14;15.70;99.90
17807;DHT22;9027;48.938;9.182;2022-09-02T01:38:46;15.70;99.90
17807;DHT22;9027;48.938;9.182;2022-09-02T01:40:18;15.70;99.90
17807;DHT22;9027;48.938;9.182;2022-09-02T01:41:50;15.70;99.90
17807;DHT22;9027;48.938;9.182;2022-09-02T01:43:25;15.60;99.90
17807;DHT22;9027;48.938;9.182;2022-09-02T01:44:57;15.60;99.90
17807;DHT22;9027;48.938;9.182;2022-09-02T01:46:30;15.60;99.90
17807;DHT22;9027;48.938;9.182;2022-09-02T01:48:03;15.60;99.90
17807;DHT22;9027;48.938;9.182;2022-09-02T01:49:36;15.60;99.90
17807;DHT22;9027;48.938;9.182;2022-09-02T01:51:08;15.60;99.90
17807;DHT22;9027;48.938;9.182;2022-09-02T01:52:41;15.60;99.90
17807;DHT22;9027;48.938;9.182;2022-09-02T01:54:13;15.60;99.90
17807;DHT22;9027;48.938;9.182;2022-09-02T01:55:46;15.50;99.90
17807;DHT22;9027;48.938;9.182;2022-09-02T01:57:18;15.40;99.90
17807;DHT22;9027;48.938;9.182;2022-09-02T01:58:54;15.40;99.90
17807;DHT22;9027;48.938;9.182;2022-09-02T02:00:27;15.40;99.90
17807;DHT22;9027;48.938;9.182;2022-09-02T02:01:58;15.40;99.90
17807;DHT22;9027;48.938;9.182;2022-09-02T02:03:30;15.40;99.90
17807;DHT22;9027;48.938;9.182;2022-09-02T02:05:03;15.40;99.90
17807;DHT22;9027;48.938;9.182;2022-09-02T02:06:35;15.40;99.90
17807;DHT22;9027;48.938;9.182;2022-09-02T02:08:11;15.30;99.90
17807;DHT22;9027;48.938;9.182;2022-09-02T02:09:43;15.30;99.90
17807;DHT22;9027;48.938;9.182;2022-09-02T02:11:18;15.30;99.90
17807;DHT22;9027;48.938;9.182;2022-09-02T02:12:53;15.30;99.90
17807;DHT22;9027;48.938;9.182;2022-09-02T02:14:26;15.30;99.90
17807;DHT22;9027;48.938;9.182;2022-09-02T02:15:58;15.30;99.90
17807;DHT22;9027;48.938;9.182;2022-09-02T02:17:30;15.30;99.90
17807;DHT22;9027;48.938;9.182;2022-09-02T02:19:02;15.20;99.90
17807;DHT22;9027;48.938;9.182;2022-09-02T02:20:34;15.20;99.90
17807;DHT22;9027;48.938;9.182;2022-09-02T02:22:06;15.10;99.90
17807;DHT22;9027;48.938;9.182;2022-09-02T02:23:39;15.10;99.90
17807;DHT22;9027;48.938;9.182;2022-09-02T02:25:12;15.10;99.90
17807;DHT22;9027;48.938;9.182;2022-09-02T02:26:45;15.20;99.90
17807;DHT22;9027;48.938;9.182;2022-09-02T02:28:17;15.10;99.90
17807;DHT22;9027;48.938;9.182;2022-09-02T02:29:49;15.10;99.90
17807;DHT22;9027;48.938;9.182;2022-09-02T02:31:21;15.00;99.90
17807;DHT22;9027;48.938;9.182;2022-09-02T02:32:55;14.80;99.90
17807;DHT22;9027;48.938;9.182;2022-09-02T02:34:27;14.80;99.90
17807;DHT22;9027;48.938;9.182;2022-09-02T02:35:58;14.80;99.90
17807;DHT22;9027;48.938;9.182;2022-09-02T02:37:30;14.80;99.90
17807;DHT22;9027;48.938;9.182;2022-09-02T02:39:05;14.80;99.90
17807;DHT22;9027;48.938;9.182;2022-09-02T02:40:39;14.80;99.90
17807;DHT22;9027;48.938;9.182;2022-09-02T02:42:10;14.80;99.90
17807;DHT22;9027;48.938;9.182;2022-09-02T02:43:45;14.80;99.90
17807;DHT22;9027;48.938;9.182;2022-09-02T02:45:18;14.80;99.90
17807;DHT22;9027;48.938;9.182;2022-09-02T02:46:49;14.80;99.90
17807;DHT22;9027;48.938;9.182;2022-09-02T02:48:22;14.80;99.90
17807;DHT22;9027;48.938;9.182;2022-09-02T02:49:54;14.80;99.90
17807;DHT22;9027;48.938;9.182;2022-09-02T02:51:26;14.70;99.90
17807;DHT22;9027;48.938;9.182;2022-09-02T02:52:58;14.70;99.90
17807;DHT22;9027;48.938;9.182;2022-09-02T02:54:35;14.70;99.90
17807;DHT22;9027;48.938;9.182;2022-09-02T02:56:08;14.70;99.90
17807;DHT22;9027;48.938;9.182;2022-09-02T02:57:40;14.70;99.90
17807;DHT22;9027;48.938;9.182;2022-09-02T02:59:12;14.70;99.90
17807;DHT22;9027;48.938;9.182;2022-09-02T03:00:44;14.60;99.90
17807;DHT22;9027;48.938;9.182;2022-09-02T03:02:17;14.70;99.90
17807;DHT22;9027;48.938;9.182;2022-09-02T03:03:51;14.70;99.90
17807;DHT22;9027;48.938;9.182;2022-09-02T03:05:26;14.70;99.90
17807;DHT22;9027;48.938;9.182;2022-09-02T03:07:00;14.70;99.90
17807;DHT22;9027;48.938;9.182;2022-09-02T03:08:33;14.50;99.90
17807;DHT22;9027;48.938;9.182;2022-09-02T03:10:10;14.40;99.90
17807;DHT22;9027;48.938;9.182;2022-09-02T03:11:43;14.30;99.90
17807;DHT22;9027;48.938;9.182;2022-09-02T03:13:15;14.30;99.90
17807;DHT22;9027;48.938;9.182;2022-09-02T03:14:48;14.40;99.90
17807;DHT22;9027;48.938;9.182;2022-09-02T03:16:22;14.40;99.90
17807;DHT22;9027;48.938;9.182;2022-09-02T03:17:56;14.40;99.90
17807;DHT22;9027;48.938;9.182;2022-09-02T03:19:28;14.40;99.90
17807;DHT22;9027;48.938;9.182;2022-09-02T03:21:00;14.40;99.90
17807;DHT22;9027;48.938;9.182;2022-09-02T03:22:32;14.40;99.90
17807;DHT22;9027;48.938;9.182;2022-09-02T03:24:03;14.40;99.90
17807;DHT22;9027;48.938;9.182;2022-09-02T03:25:37;14.50;99.90
17807;DHT22;9027;48.938;9.182;2022-09-02T03:27:19;14.50;99.90
17807;DHT22;9027;48.938;9.182;2022-09-02T03:28:53;14.40;99.90
17807;DHT22;9027;48.938;9.182;2022-09-02T03:30:29;14.40;99.90
17807;DHT22;9027;48.938;9.182;2022-09-02T03:32:02;14.40;99.90
17807;DHT22;9027;48.938;9.182;2022-09-02T03:33:34;14.40;99.90
17807;DHT22;9027;48.938;9.182;2022-09-02T03:35:07;14.40;99.90
17807;DHT22;9027;48.938;9.182;2022-09-02T03:36:41;14.40;99.90
17807;DHT22;9027;48.938;9.182;2022-09-02T03:38:14;14.40;99.90
17807;DHT22;9027;48.938;9.182;2022-09-02T03:39:47;14.40;99.90
17807;DHT22;9027;48.938;9.182;2022-09-02T03:41:20;14.30;99.90
17807;DHT22;9027;48.938;9.182;2022-09-02T03:42:52;14.30;99.90
17807;DHT22;9027;48.938;9.182;2022-09-02T03:44:25;14.30;99.90
17807;DHT22;9027;48.938;9.182;2022-09-02T03:45:57;14.30;99.90
17807;DHT22;9027;48.938;9.182;2022-09-02T03:47:29;14.30;99.90
17807;DHT22;9027;48.938;9.182;2022-09-02T03:49:02;14.30;99.90
17807;DHT22;9027;48.938;9.182;2022-09-02T03:50:37;14.20;99.90
17807;DHT22;9027;48.938;9.182;2022-09-02T03:52:11;14.30;99.90
17807;DHT22;9027;48.938;9.182;2022-09-02T03:53:43;14.20;99.90
17807;DHT22;9027;48.938;9.182;2022-09-02T03:55:16;14.20;99.90
17807;DHT22;9027;48.938;9.182;2022-09-02T03:56:49;14.20;99.90
17807;DHT22;9027;48.938;9.182;2022-09-02T03:58:21;14.20;99.90
17807;DHT22;9027;48.938;9.182;2022-09-02T03:59:53;14.20;99.90
17807;DHT22;9027;48.938;9.182;2022-09-02T04:01:26;14.20;99.90
17807;DHT22;9027;48.938;9.182;2022-09-02T04:02:59;14.20;99.90
17807;DHT22;9027;48.938;9.182;2022-09-02T04:04:31;14.20;99.90
17807;DHT22;9027;48.938;9.182;2022-09-02T04:06:03;14.20;99.90
17807;DHT22;9027;48.938;9.182;2022-09-02T04:07:36;14.20;99.90
17807;DHT22;9027;48.938;9.182;2022-09-02T04:09:08;14.20;99.90
17807;DHT22;9027;48.938;9.182;2022-09-02T04:10:43;14.20;99.90
17807;DHT22;9027;48.938;9.182;2022-09-02T04:12:15;14.10;99.90
17807;DHT22;9027;48.938;9.182;2022-09-02T04:13:48;14.10;99.90
17807;DHT22;9027;48.938;9.182;2022-09-02T04:15:23;14.10;99.90
17807;DHT22;9027;48.938;9.182;2022-09-02T04:22:18;14.10;99.90
17807;DHT22;9027;48.938;9.182;2022-09-02T04:23:50;14.10;99.90
17807;DHT22;9027;48.938;9.182;2022-09-02T04:25:24;14.10;99.90
17807;DHT22;9027;48.938;9.182;2022-09-02T04:26:57;14.10;99.90
17807;DHT22;9027;48.938;9.182;2022-09-02T04:28:32;14.10;99.90
17807;DHT22;9027;48.938;9.182;2022-09-02T04:30:06;14.00;99.90
17807;DHT22;9027;48.938;9.182;2022-09-02T04:31:40;14.00;99.90
17807;DHT22;9027;48.938;9.182;2022-09-02T04:33:12;14.00;99.90
17807;DHT22;9027;48.938;9.182;2022-09-02T04:34:44;13.90;99.90
17807;DHT22;9027;48.938;9.182;2022-09-02T04:36:18;13.80;99.90
17807;DHT22;9027;48.938;9.182;2022-09-02T04:37:52;13.80;99.90
17807;DHT22;9027;48.938;9.182;2022-09-02T04:39:24;13.80;99.90
17807;DHT22;9027;48.938;9.182;2022-09-02T04:40:56;13.80;99.90
17807;DHT22;9027;48.938;9.182;2022-09-02T04:42:28;13.80;99.90
17807;DHT22;9027;48.938;9.182;2022-09-02T04:44:03;13.80;99.90
17807;DHT22;9027;48.938;9.182;2022-09-02T04:45:41;13.70;99.90
17807;DHT22;9027;48.938;9.182;2022-09-02T04:47:13;13.60;99.90
17807;DHT22;9027;48.938;9.182;2022-09-02T04:48:47;13.60;99.90
17807;DHT22;9027;48.938;9.182;2022-09-02T04:50:19;13.70;99.90
17807;DHT22;9027;48.938;9.182;2022-09-02T04:52:02;13.70;99.90
17807;DHT22;9027;48.938;9.182;2022-09-02T04:53:36;13.60;99.90
17807;DHT22;9027;48.938;9.182;2022-09-02T04:55:08;13.50;99.90
17807;DHT22;9027;48.938;9.182;2022-09-02T04:56:41;13.50;99.90
17807;DHT22;9027;48.938;9.182;2022-09-02T04:58:14;13.50;99.90
17807;DHT22;9027;48.938;9.182;2022-09-02T04:59:48;13.60;99.90
17807;DHT22;9027;48.938;9.182;2022-09-02T05:01:21;13.60;99.90
17807;DHT22;9027;48.938;9.182;2022-09-02T05:02:53;13.70;99.90
17807;DHT22;9027;48.938;9.182;2022-09-02T05:04:27;13.80;99.90
17807;DHT22;9027;48.938;9.182;2022-09-02T05:06:01;13.80;99.90
17807;DHT22;9027;48.938;9.182;2022-09-02T05:07:34;13.80;99.90
17807;DHT22;9027;48.938;9.182;2022-09-02T05:09:06;13.80;99.90
17807;DHT22;9027;48.938;9.182;2022-09-02T05:10:41;13.90;99.90
17807;DHT22;9027;48.938;9.182;2022-09-02T05:12:13;13.90;99.90
17807;DHT22;9027;48.938;9.182;2022-09-02T05:13:51;14.00;99.90
17807;DHT22;9027;48.938;9.182;2022-09-02T05:15:26;13.90;99.90
17807;DHT22;9027;48.938;9.182;2022-09-02T05:16:58;14.00;99.90
17807;DHT22;9027;48.938;9.182;2022-09-02T05:18:31;14.00;99.90
17807;DHT22;9027;48.938;9.182;2022-09-02T05:20:04;14.00;99.90
17807;DHT22;9027;48.938;9.182;2022-09-02T05:21:38;14.10;99.90
17807;DHT22;9027;48.938;9.182;2022-09-02T05:23:12;14.10;99.90
17807;DHT22;9027;48.938;9.182;2022-09-02T05:24:46;14.10;99.90
17807;DHT22;9027;48.938;9.182;2022-09-02T05:26:19;14.10;99.90
17807;DHT22;9027;48.938;9.182;2022-09-02T05:27:51;14.10;99.90
17807;DHT22;9027;48.938;9.182;2022-09-02T05:29:23;14.10;99.90
17807;DHT22;9027;48.938;9.182;2022-09-02T05:31:03;14.20;99.90
17807;DHT22;9027;48.938;9.182;2022-09-02T05:32:36;14.30;99.90
17807;DHT22;9027;48.938;9.182;2022-09-02T05:34:08;14.30;99.90
17807;DHT22;9027;48.938;9.182;2022-09-02T05:35:42;14.40;99.90
17807;DHT22;9027;48.938;9.182;2022-09-02T05:37:14;14.40;99.90
17807;DHT22;9027;48.938;9.182;2022-09-02T05:38:46;14.50;99.90
17807;DHT22;9027;48.938;9.182;2022-09-02T05:40:18;14.50;99.90
17807;DHT22;9027;48.938;9.182;2022-09-02T05:41:50;14.60;99.90
17807;DHT22;9027;48.938;9.182;2022-09-02T05:43:22;14.90;99.90
17807;DHT22;9027;48.938;9.182;2022-09-02T05:44:54;15.40;99.90
17807;DHT22;9027;48.938;9.182;2022-09-02T05:46:29;16.10;99.90
17807;DHT22;9027;48.938;9.182;2022-09-02T05:48:02;16.80;99.90
17807;DHT22;9027;48.938;9.182;2022-09-02T05:49:54;17.50;99.90
17807;DHT22;9027;48.938;9.182;2022-09-02T05:51:26;18.20;99.90
17807;DHT22;9027;48.938;9.182;2022-09-02T05:53:00;18.80;99.90
17807;DHT22;9027;48.938;9.182;2022-09-02T05:54:34;19.50;99.90
17807;DHT22;9027;48.938;9.182;2022-09-02T05:56:08;20.00;99.90
17807;DHT22;9027;48.938;9.182;2022-09-02T05:57:40;20.60;99.90
17807;DHT22;9027;48.938;9.182;2022-09-02T05:59:13;20.90;99.90
17807;DHT22;9027;48.938;9.182;2022-09-02T06:00:46;21.50;99.90
17807;DHT22;9027;48.938;9.182;2022-09-02T06:02:20;22.00;99.90
17807;DHT22;9027;48.938;9.182;2022-09-02T06:03:52;22.50;99.90
17807;DHT22;9027;48.938;9.182;2022-09-02T06:05:23;22.90;99.90
17807;DHT22;9027;48.938;9.182;2022-09-02T06:07:03;23.30;99.90
17807;DHT22;9027;48.938;9.182;2022-09-02T06:08:35;23.80;99.90
17807;DHT22;9027;48.938;9.182;2022-09-02T06:10:09;24.10;99.90
17807;DHT22;9027;48.938;9.182;2022-09-02T06:11:42;24.30;99.90
17807;DHT22;9027;48.938;9.182;2022-09-02T06:13:17;24.50;99.90
17807;DHT22;9027;48.938;9.182;2022-09-02T06:14:53;24.80;99.90
17807;DHT22;9027;48.938;9.182;2022-09-02T06:16:26;25.10;99.90
17807;DHT22;9027;48.938;9.182;2022-09-02T06:17:59;25.40;99.90
17807;DHT22;9027;48.938;9.182;2022-09-02T06:19:33;25.60;99.20
17807;DHT22;9027;48.938;9.182;2022-09-02T06:21:06;25.80;98.90
17807;DHT22;9027;48.938;9.182;2022-09-02T06:22:43;25.90;98.20
17807;DHT22;9027;48.938;9.182;2022-09-02T06:24:15;26.00;97.50
17807;DHT22;9027;48.938;9.182;2022-09-02T06:25:48;26.20;96.80
17807;DHT22;9027;48.938;9.182;2022-09-02T06:27:19;26.30;96.40
17807;DHT22;9027;48.938;9.182;2022-09-02T06:28:55;26.50;95.80
17807;DHT22;9027;48.938;9.182;2022-09-02T06:30:27;26.70;95.40
17807;DHT22;9027;48.938;9.182;2022-09-02T06:31:58;26.80;94.70
17807;DHT22;9027;48.938;9.182;2022-09-02T06:33:32;26.60;94.80
17807;DHT22;9027;48.938;9.182;2022-09-02T06:35:05;26.60;94.80
17807;DHT22;9027;48.938;9.182;2022-09-02T06:36:40;26.30;94.70
17807;DHT22;9027;48.938;9.182;2022-09-02T06:38:13;26.00;95.70
17807;DHT22;9027;48.938;9.182;2022-09-02T06:39:46;26.20;95.20
17807;DHT22;9027;48.938;9.182;2022-09-02T06:41:25;26.50;94.50
17807;DHT22;9027;48.938;9.182;2022-09-02T06:42:59;26.30;94.40
17807;DHT22;9027;48.938;9.182;2022-09-02T06:44:37;26.10;94.50
17807;DHT22;9027;48.938;9.182;2022-09-02T06:46:14;26.10;94.90
17807;DHT22;9027;48.938;9.182;2022-09-02T06:47:47;26.10;95.20
17807;DHT22;9027;48.938;9.182;2022-09-02T06:49:21;26.20;95.40
17807;DHT22;9027;48.938;9.182;2022-09-02T06:50:53;26.40;94.90
17807;DHT22;9027;48.938;9.182;2022-09-02T06:52:26;26.40;94.60
17807;DHT22;9027;48.938;9.182;2022-09-02T06:53:59;26.30;94.60
17807;DHT22;9027;48.938;9.182;2022-09-02T06:55:35;26.40;94.20
17807;DHT22;9027;48.938;9.182;2022-09-02T06:57:07;26.40;93.80
17807;DHT22;9027;48.938;9.182;2022-09-02T06:58:41;26.40;93.60
17807;DHT22;9027;48.938;9.182;2022-09-02T07:00:14;26.50;93.70
17807;DHT22;9027;48.938;9.182;2022-09-02T07:01:48;26.60;93.50
17807;DHT22;9027;48.938;9.182;2022-09-02T07:03:22;26.50;93.10
17807;DHT22;9027;48.938;9.182;2022-09-02T07:05:24;26.50;93.50
17807;DHT22;9027;48.938;9.182;2022-09-02T07:06:56;26.50;93.60
17807;DHT22;9027;48.938;9.182;2022-09-02T07:08:31;26.40;94.10
17807;DHT22;9027;48.938;9.182;2022-09-02T07:10:07;26.10;93.80
17807;DHT22;9027;48.938;9.182;2022-09-02T07:11:40;26.00;93.50
17807;DHT22;9027;48.938;9.182;2022-09-02T07:13:13;25.90;93.80
17807;DHT22;9027;48.938;9.182;2022-09-02T07:14:46;25.70;94.10
17807;DHT22;9027;48.938;9.182;2022-09-02T07:16:19;25.60;94.00
17807;DHT22;9027;48.938;9.182;2022-09-02T07:17:52;25.50;94.50
17807;DHT22;9027;48.938;9.182;2022-09-02T07:19:34;25.20;94.50
17807;DHT22;9027;48.938;9.182;2022-09-02T07:21:09;25.00;95.70
17807;DHT22;9027;48.938;9.182;2022-09-02T07:22:43;24.90;95.70
17807;DHT22;9027;48.938;9.182;2022-09-02T07:24:18;24.90;96.40
17807;DHT22;9027;48.938;9.182;2022-09-02T07:25:50;25.10;96.00
17807;DHT22;9027;48.938;9.182;2022-09-02T07:27:23;25.20;95.60
17807;DHT22;9027;48.938;9.182;2022-09-02T07:28:55;25.10;95.20
17807;DHT22;9027;48.938;9.182;2022-09-02T07:30:28;25.10;94.90
17807;DHT22;9027;48.938;9.182;2022-09-02T07:32:07;24.90;95.60
17807;DHT22;9027;48.938;9.182;2022-09-02T07:33:41;24.80;95.90
17807;DHT22;9027;48.938;9.182;2022-09-02T07:35:14;24.80;96.20
17807;DHT22;9027;48.938;9.182;2022-09-02T07:36:49;24.90;96.90
17807;DHT22;9027;48.938;9.182;2022-09-02T07:38:24;25.10;96.10
17807;DHT22;9027;48.938;9.182;2022-09-02T07:39:56;25.20;95.80
17807;DHT22;9027;48.938;9.182;2022-09-02T07:41:30;25.40;96.70
17807;DHT22;9027;48.938;9.182;2022-09-02T07:43:03;25.60;95.40
17807;DHT22;9027;48.938;9.182;2022-09-02T07:44:38;25.40;94.70
17807;DHT22;9027;48.938;9.182;2022-09-02T07:46:11;24.70;96.40
17807;DHT22;9027;48.938;9.182;2022-09-02T07:47:43;24.60;96.10
17807;DHT22;9027;48.938;9.182;2022-09-02T07:49:18;24.40;96.10
17807;DHT22;9027;48.938;9.182;2022-09-02T07:50:53;24.20;96.20
17807;DHT22;9027;48.938;9.182;2022-09-02T07:52:27;24.10;96.20
17807;DHT22;9027;48.938;9.182;2022-09-02T07:54:00;24.30;96.20
17807;DHT22;9027;48.938;9.182;2022-09-02T07:55:33;24.30;95.60
17807;DHT22;9027;48.938;9.182;2022-09-02T07:57:07;24.00;95.90
17807;DHT22;9027;48.938;9.182;2022-09-02T07:58:40;23.90;96.80
17807;DHT22;9027;48.938;9.182;2022-09-02T08:00:13;24.00;97.10
17807;DHT22;9027;48.938;9.182;2022-09-02T08:01:46;24.30;97.00
17807;DHT22;9027;48.938;9.182;2022-09-02T08:03:19;24.40;95.90
17807;DHT22;9027;48.938;9.182;2022-09-02T08:04:56;24.00;96.10
17807;DHT22;9027;48.938;9.182;2022-09-02T08:06:28;23.80;96.20
17807;DHT22;9027;48.938;9.182;2022-09-02T08:08:04;24.00;96.70
17807;DHT22;9027;48.938;9.182;2022-09-02T08:09:36;24.30;96.70
17807;DHT22;9027;48.938;9.182;2022-09-02T08:11:08;24.60;97.00
17807;DHT22;9027;48.938;9.182;2022-09-02T08:12:42;24.40;95.30
17807;DHT22;9027;48.938;9.182;2022-09-02T08:14:16;24.30;96.40
17807;DHT22;9027;48.938;9.182;2022-09-02T08:15:49;24.30;96.30
17807;DHT22;9027;48.938;9.182;2022-09-02T08:17:21;24.10;95.30
17807;DHT22;9027;48.938;9.182;2022-09-02T08:18:52;24.10;95.60
17807;DHT22;9027;48.938;9.182;2022-09-02T08:20:24;24.30;95.50
17807;DHT22;9027;48.938;9.182;2022-09-02T08:22:02;24.10;95.60
17807;DHT22;9027;48.938;9.182;2022-09-02T08:23:35;24.30;95.50
17807;DHT22;9027;48.938;9.182;2022-09-02T08:25:08;24.40;95.30
17807;DHT22;9027;48.938;9.182;2022-09-02T08:26:40;24.70;95.30
17807;DHT22;9027;48.938;9.182;2022-09-02T08:28:12;24.90;95.20
17807;DHT22;9027;48.938;9.182;2022-09-02T08:29:45;24.80;93.70
17807;DHT22;9027;48.938;9.182;2022-09-02T08:31:16;24.40;94.10
17807;DHT22;9027;48.938;9.182;2022-09-02T08:32:49;24.10;94.80
17807;DHT22;9027;48.938;9.182;2022-09-02T08:34:21;24.00;94.70
17807;DHT22;9027;48.938;9.182;2022-09-02T08:35:53;24.40;95.10
17807;DHT22;9027;48.938;9.182;2022-09-02T08:37:26;24.70;94.10
17807;DHT22;9027;48.938;9.182;2022-09-02T08:39:02;24.70;92.80
17807;DHT22;9027;48.938;9.182;2022-09-02T08:40:36;24.20;93.60
17807;DHT22;9027;48.938;9.182;2022-09-02T08:42:16;24.00;93.80
17807;DHT22;9027;48.938;9.182;2022-09-02T08:43:51;23.60;93.90
17807;DHT22;9027;48.938;9.182;2022-09-02T08:45:27;23.40;94.30
17807;DHT22;9027;48.938;9.182;2022-09-02T08:47:01;23.50;94.30
17807;DHT22;9027;48.938;9.182;2022-09-02T08:48:39;23.50;94.30
17807;DHT22;9027;48.938;9.182;2022-09-02T08:50:16;23.40;94.30
17807;DHT22;9027;48.938;9.182;2022-09-02T08:51:50;23.10;94.50
17807;DHT22;9027;48.938;9.182;2022-09-02T08:53:30;23.00;94.60
17807;DHT22;9027;48.938;9.182;2022-09-02T08:55:05;23.20;93.90
17807;DHT22;9027;48.938;9.182;2022-09-02T08:56:38;23.60;93.50
17807;DHT22;9027;48.938;9.182;2022-09-02T08:58:12;23.90;92.60
17807;DHT22;9027;48.938;9.182;2022-09-02T08:59:46;23.80;92.60
17807;DHT22;9027;48.938;9.182;2022-09-02T09:01:25;23.40;94.00
17807;DHT22;9027;48.938;9.182;2022-09-02T09:03:03;23.30;92.90
17807;DHT22;9027;48.938;9.182;2022-09-02T09:07:12;24.10;92.30
17807;DHT22;9027;48.938;9.182;2022-09-02T09:08:50;24.60;92.00
17807;DHT22;9027;48.938;9.182;2022-09-02T09:10:35;24.90;90.70
17807;DHT22;9027;48.938;9.182;2022-09-02T09:12:13;25.10;90.20
17807;DHT22;9027;48.938;9.182;2022-09-02T09:14:05;25.30;89.20
17807;DHT22;9027;48.938;9.182;2022-09-02T09:15:45;25.30;89.60
17807;DHT22;9027;48.938;9.182;2022-09-02T09:17:24;25.10;89.00
17807;DHT22;9027;48.938;9.182;2022-09-02T09:19:03;24.70;89.70
17807;DHT22;9027;48.938;9.182;2022-09-02T09:20:40;24.90;89.70
17807;DHT22;9027;48.938;9.182;2022-09-02T09:22:17;25.10;88.20
17807;DHT22;9027;48.938;9.182;2022-09-02T09:23:49;24.80;86.90
17807;DHT22;9027;48.938;9.182;2022-09-02T09:25:25;24.30;89.60
17807;DHT22;9027;48.938;9.182;2022-09-02T09:27:00;24.40;88.00
17807;DHT22;9027;48.938;9.182;2022-09-02T09:28:37;24.40;87.80
17807;DHT22;9027;48.938;9.182;2022-09-02T09:30:12;24.80;87.50
17807;DHT22;9027;48.938;9.182;2022-09-02T09:31:45;25.10;87.20
17807;DHT22;9027;48.938;9.182;2022-09-02T09:33:21;25.00;86.30
17807;DHT22;9027;48.938;9.182;2022-09-02T09:34:56;24.50;86.00
17807;DHT22;9027;48.938;9.182;2022-09-02T09:36:49;24.30;88.10
17807;DHT22;9027;48.938;9.182;2022-09-02T09:38:30;24.60;86.50
17807;DHT22;9027;48.938;9.182;2022-09-02T09:40:28;24.90;87.50
17807;DHT22;9027;48.938;9.182;2022-09-02T09:42:02;24.60;86.30
17807;DHT22;9027;48.938;9.182;2022-09-02T09:43:34;24.70;85.30
17807;DHT22;9027;48.938;9.182;2022-09-02T09:45:16;24.70;85.40
17807;DHT22;9027;48.938;9.182;2022-09-02T09:46:59;25.00;84.30
17807;DHT22;9027;48.938;9.182;2022-09-02T09:48:32;25.40;83.40
17807;DHT22;9027;48.938;9.182;2022-09-02T09:50:11;25.10;84.40
17807;DHT22;9027;48.938;9.182;2022-09-02T09:51:53;25.10;84.20
17807;DHT22;9027;48.938;9.182;2022-09-02T09:53:28;24.90;85.10
17807;DHT22;9027;48.938;9.182;2022-09-02T09:55:12;24.90;86.20
17807;DHT22;9027;48.938;9.182;2022-09-02T09:56:46;25.30;82.90
17807;DHT22;9027;48.938;9.182;2022-09-02T09:58:18;25.40;81.90
17807;DHT22;9027;48.938;9.182;2022-09-02T09:59:51;25.40;83.40
17807;DHT22;9027;48.938;9.182;2022-09-02T10:01:29;25.70;80.10
17807;DHT22;9027;48.938;9.182;2022-09-02T10:03:04;24.90;80.60
17807;DHT22;9027;48.938;9.182;2022-09-02T10:04:36;24.50;82.40
17807;DHT22;9027;48.938;9.182;2022-09-02T10:06:17;24.40;83.30
17807;DHT22;9027;48.938;9.182;2022-09-02T10:07:53;24.50;83.80
17807;DHT22;9027;48.938;9.182;2022-09-02T10:09:31;25.00;82.30
17807;DHT22;9027;48.938;9.182;2022-09-02T10:11:05;25.50;82.80